Huvudsida
METAR-TAF:

METAR-TAF

Flygplatser :

Wick Airport

Wick, Skottland

latitud: 58-27N, longitud: 003-05W, höjd: 39 m

Aktuellt väderrapport

Denna rapport gjordes för 18 minuter sedan, klockan 19:50 UTC
Vind 9 kt från syd/sydost
Temperatur 12°C
Fuktighet 88%
Tryck 1024 hPa
Sikt 10 km eller mer

METAR: EGPC 291950Z AUTO 15009KT 9999 NCD 12/10 Q1024

Tid: 21:08 (20:08 UTC)

Väderprognos

Denna rapport gjordes för 6 timmar och 13 minuter sedan, klockan 13:55 UTC
Prognos gäller från 29 kl. 15 UTC till 29 kl. 24 UTC
Vind 9 kt från syd/sydost
Sikt 10 km eller mer
Få moln på en höjd av 4000 ft

TAF: EGPC 291355Z 2915/2924 15009KT 9999 FEW040

Aktuella väderrapporter och prognoser från 4000 flygplatser (METAR- och TAF-rapporter).

De tillgängliga stationerna syns som gula och röda prickar på kartan.

För musen över prickarna för att se namnen på stationerna.

Klicka sedan för att få väderrapporter och prognoser.

För att ändra kartan: Klicka på de gröna knapparna med ett svart kors på för att zooma in; den gröna knappen med ett streck på för att zooma ut; eller på de gröna pilarna för angränsande kartor.


METAR-TAF: